createdAt,value
2018-04-16T13:16:45.636Z,71.25
2018-04-16T13:17:45.518Z,71.16
2018-04-16T13:18:45.432Z,70.52
2018-04-16T13:19:45.360Z,70.72
2018-04-16T13:20:45.276Z,70.52
2018-04-16T13:21:45.199Z,69.46
2018-04-16T13:22:45.123Z,68.98
2018-04-16T13:23:45.050Z,68.54
2018-04-16T13:24:44.981Z,67.96
2018-04-16T13:25:44.902Z,68.29
2018-04-16T13:26:44.828Z,67.42
2018-04-16T13:27:44.755Z,67.03
2018-04-16T13:28:44.684Z,66.04
2018-04-16T13:29:44.614Z,65.30
2018-04-16T13:30:44.535Z,63.06
2018-04-16T13:31:44.466Z,61.60
2018-04-16T13:32:44.397Z,58.83
2018-04-16T13:33:44.325Z,59.02
2018-04-16T13:34:44.269Z,58.93
2018-04-16T13:35:44.190Z,59.00
2018-04-16T13:36:44.117Z,58.61
2018-04-16T13:37:44.048Z,56.65
2018-04-16T13:38:43.986Z,57.32
2018-04-16T13:39:43.915Z,56.33
2018-04-16T13:40:43.844Z,57.49
2018-04-16T13:41:43.778Z,58.81
2018-04-16T13:42:43.709Z,59.78
2018-04-16T13:43:43.640Z,60.93
2018-04-16T13:44:43.571Z,59.65
2018-04-16T13:45:43.520Z,59.65
2018-04-16T13:46:43.439Z,59.55
2018-04-16T13:47:43.368Z,60.23
2018-04-16T13:48:43.301Z,61.10
2018-04-16T13:49:43.233Z,60.97
2018-04-16T13:50:43.161Z,60.77
2018-04-16T13:51:43.105Z,61.35
2018-04-16T13:52:43.048Z,61.55
2018-04-16T13:53:42.975Z,61.61
2018-04-16T13:54:42.890Z,62.57
2018-04-16T13:55:42.825Z,63.06
2018-04-16T13:56:42.769Z,62.96
2018-04-16T13:57:42.697Z,62.57
2018-04-16T13:58:42.616Z,61.80
2018-04-16T13:59:42.548Z,62.83
2018-04-16T14:00:42.477Z,61.87
2018-04-16T14:01:42.410Z,62.45
2018-04-16T14:02:42.339Z,62.26
2018-04-16T14:03:42.272Z,62.54
2018-04-16T14:04:42.207Z,63.31
2018-04-16T14:05:42.132Z,63.31
2018-04-16T14:06:42.064Z,63.44
2018-04-16T14:07:42.005Z,62.96
2018-04-16T14:08:41.925Z,62.29
2018-04-16T14:09:41.854Z,63.44
2018-04-16T14:10:41.791Z,62.48
2018-04-16T14:11:41.727Z,63.15
2018-04-16T14:12:41.696Z,62.48
2018-04-16T14:13:41.576Z,61.58
2018-04-16T14:14:41.510Z,61.00
2018-04-16T14:15:41.436Z,59.97
2018-04-16T14:16:41.367Z,57.97
2018-04-16T14:17:41.298Z,57.10
2018-04-16T14:18:41.228Z,57.46
2018-04-16T14:19:41.180Z,58.78
2018-04-16T14:20:41.089Z,58.78
2018-04-16T14:21:41.023Z,59.65
2018-04-16T14:22:40.951Z,59.72
2018-04-16T14:23:40.879Z,58.75
2018-04-16T14:24:40.812Z,59.72
2018-04-16T14:25:40.741Z,59.62
2018-04-16T14:26:40.672Z,60.84
2018-04-16T14:27:40.605Z,61.13
2018-04-16T14:28:40.538Z,61.22
2018-04-16T14:29:40.463Z,62.00
2018-04-16T14:30:40.396Z,61.74
2018-04-16T14:31:40.326Z,61.19
2018-04-16T14:32:40.255Z,60.26
2018-04-16T14:33:40.186Z,58.75
2018-04-16T14:34:40.117Z,58.36
2018-04-16T14:35:40.050Z,58.84
2018-04-16T14:36:39.981Z,58.94
2018-04-16T14:37:39.912Z,57.71
2018-04-16T14:38:39.866Z,57.16
2018-04-16T14:39:39.772Z,56.29
2018-04-16T14:40:39.703Z,55.42
2018-04-16T14:41:39.635Z,55.81
2018-04-16T14:42:39.590Z,55.62
2018-04-16T14:43:39.505Z,54.94
2018-04-16T14:44:39.439Z,54.84
2018-04-16T14:45:39.377Z,55.81
2018-04-16T14:46:39.303Z,55.78
2018-04-16T14:47:39.231Z,55.68
2018-04-16T14:48:39.167Z,54.91
2018-04-16T14:49:39.093Z,54.91
2018-04-16T14:50:39.042Z,54.24
2018-04-16T14:51:38.961Z,53.56
2018-04-16T14:52:38.891Z,53.66
2018-04-16T14:53:38.851Z,54.72
2018-04-16T14:54:38.769Z,55.08
2018-04-16T14:55:38.731Z,56.52
2018-04-16T14:56:38.632Z,57.17
2018-04-16T14:57:38.558Z,56.11
2018-04-16T14:58:38.488Z,56.40
2018-04-16T14:59:38.427Z,57.05
2018-04-16T15:00:38.371Z,58.49
2018-04-16T15:01:38.285Z,58.69
2018-04-16T15:02:38.212Z,58.88
2018-04-16T15:03:38.143Z,59.07
2018-04-16T15:04:38.076Z,59.14
2018-04-16T15:05:38.007Z,59.14
2018-04-16T15:06:37.941Z,60.10
2018-04-16T15:07:37.868Z,59.81
2018-04-16T15:08:37.800Z,59.91
2018-04-16T15:09:37.730Z,60.58
2018-04-16T15:10:37.668Z,60.49
2018-04-16T15:11:37.593Z,61.25
2018-04-16T15:12:37.528Z,60.68
2018-04-16T15:13:37.456Z,60.10
2018-04-16T15:14:37.387Z,59.91
2018-04-16T15:15:37.316Z,59.72
2018-04-16T15:16:37.249Z,60.87
2018-04-16T15:17:37.179Z,61.35
2018-04-16T15:18:37.134Z,60.97
2018-04-16T15:19:37.070Z,61.04
2018-04-16T15:20:36.970Z,61.32
2018-04-16T15:21:36.901Z,61.32
2018-04-16T15:22:36.834Z,61.52
2018-04-16T15:23:36.760Z,62.00
2018-04-16T15:24:36.722Z,62.38
2018-04-16T15:25:36.667Z,62.83
2018-04-16T15:26:36.551Z,62.93
2018-04-16T15:27:36.481Z,62.35
2018-04-16T15:28:36.418Z,63.79
2018-04-16T15:29:36.343Z,64.18
2018-04-16T15:30:36.272Z,64.76
2018-04-16T15:31:36.207Z,65.33
2018-04-16T15:32:36.144Z,65.63
2018-04-16T15:33:36.061Z,67.22
2018-04-16T15:34:35.990Z,67.99
2018-04-16T15:35:35.919Z,68.29
2018-04-16T15:36:35.848Z,68.76
2018-04-16T15:37:35.776Z,70.94
2018-04-16T15:38:35.706Z,70.46
2018-04-16T15:39:35.689Z,70.07
2018-04-16T15:40:35.565Z,71.42
2018-04-16T15:41:35.504Z,72.34
2018-04-16T15:42:35.421Z,73.11
2018-04-16T15:43:35.351Z,75.42
2018-04-16T15:44:35.276Z,75.77
2018-04-16T15:45:35.212Z,77.88
2018-04-16T15:46:35.144Z,77.59
2018-04-16T15:47:35.062Z,78.17
2018-04-16T15:48:34.992Z,78.42
2018-04-16T15:49:34.944Z,79.47
2018-04-16T15:50:34.897Z,77.36
2018-04-16T15:51:34.807Z,77.80
2018-04-16T15:52:34.702Z,79.34
2018-04-16T15:53:34.635Z,79.05
2018-04-16T15:54:34.579Z,79.78
2018-04-16T15:55:34.484Z,80.41
2018-04-16T15:56:34.412Z,81.08
2018-04-16T15:57:34.385Z,81.95
2018-04-16T15:58:34.267Z,81.71
2018-04-16T15:59:34.192Z,82.76
2018-04-16T16:00:34.122Z,82.48
2018-04-16T16:01:34.048Z,82.67
2018-04-16T16:02:33.975Z,83.44
2018-04-16T16:03:33.909Z,82.48
2018-04-16T16:04:33.829Z,82.09
2018-04-16T16:05:33.753Z,83.15
2018-04-16T16:06:33.684Z,83.25
2018-04-16T16:07:33.608Z,83.44
2018-04-16T16:08:33.535Z,83.25
2018-04-16T16:09:33.462Z,83.44
2018-04-16T16:10:33.386Z,83.82
2018-04-16T16:11:33.313Z,84.39
2018-04-16T16:12:33.240Z,84.01
2018-04-16T16:13:33.165Z,84.88
2018-04-16T16:14:33.090Z,85.45
2018-04-16T16:15:33.016Z,84.78
2018-04-16T16:16:32.943Z,84.68
2018-04-16T16:17:32.872Z,84.49
2018-04-16T16:18:32.793Z,84.58
2018-04-16T16:19:32.719Z,85.16
2018-04-16T16:20:32.649Z,85.06
2018-04-16T16:21:32.573Z,84.97
2018-04-16T16:22:32.498Z,85.35
2018-04-16T16:23:32.426Z,85.93
2018-04-16T16:24:32.351Z,84.78
2018-04-16T16:25:32.280Z,84.78
2018-04-16T16:26:33.160Z,84.39
2018-04-16T16:27:32.129Z,83.63
2018-04-16T16:28:32.055Z,82.29
2018-04-16T16:29:31.982Z,83.44
2018-04-16T16:30:31.904Z,83.15
2018-04-16T16:31:31.837Z,83.34
2018-04-16T16:32:31.761Z,83.53
2018-04-16T16:33:31.688Z,84.49
2018-04-16T16:34:31.670Z,84.30
2018-04-16T16:35:31.558Z,83.82
2018-04-16T16:36:31.462Z,83.44
2018-04-16T16:37:31.390Z,83.34
2018-04-16T16:38:31.316Z,83.15
2018-04-16T16:39:31.247Z,83.92
2018-04-16T16:40:31.169Z,84.39
2018-04-16T16:41:31.094Z,83.72
2018-04-16T16:42:31.031Z,84.49
2018-04-16T16:43:30.946Z,84.39
2018-04-16T16:44:30.878Z,84.58
2018-04-16T16:45:30.804Z,83.63
2018-04-16T16:46:30.761Z,83.44
2018-04-16T16:47:30.651Z,82.96
2018-04-16T16:48:30.577Z,81.90
2018-04-16T16:49:30.505Z,81.90
2018-04-16T16:50:30.455Z,80.76
2018-04-16T16:51:30.362Z,80.85
2018-04-16T16:52:30.289Z,80.66
2018-04-16T16:53:30.210Z,80.27
2018-04-16T16:54:30.140Z,80.94
2018-04-16T16:55:30.060Z,81.52
2018-04-16T16:56:30.106Z,81.62
2018-04-16T16:57:29.913Z,81.71
2018-04-16T16:58:29.845Z,82.00
2018-04-16T16:59:29.797Z,82.09
2018-04-16T17:00:29.695Z,81.33
2018-04-16T17:01:29.622Z,78.99
2018-04-16T17:02:29.568Z,78.80
2018-04-16T17:03:29.479Z,80.14
2018-04-16T17:04:29.396Z,81.38
2018-04-16T17:05:29.322Z,81.00
2018-04-16T17:06:29.382Z,80.90
2018-04-16T17:07:29.172Z,80.90
2018-04-16T17:08:29.132Z,80.90
2018-04-16T17:09:29.035Z,80.71
2018-04-16T17:10:28.954Z,82.43
2018-04-16T17:11:28.877Z,83.39
2018-04-16T17:12:28.802Z,84.55
2018-04-16T17:13:28.764Z,84.55
2018-04-16T17:14:28.677Z,85.12
2018-04-16T17:15:28.581Z,84.83
2018-04-16T17:16:28.506Z,85.31
2018-04-16T17:17:28.430Z,84.74
2018-04-16T17:18:28.359Z,84.83
2018-04-16T17:19:28.304Z,84.64
2018-04-16T17:20:28.210Z,85.02
2018-04-16T17:22:28.077Z,84.64
2018-04-16T17:23:28.024Z,83.45
2018-04-16T17:24:27.945Z,83.36
2018-04-16T17:25:27.838Z,83.16
2018-04-16T17:26:27.820Z,83.16
2018-04-16T17:27:27.695Z,84.22
2018-04-16T17:28:27.613Z,84.98
2018-04-16T17:29:27.546Z,84.98
2018-04-16T17:30:27.472Z,84.79
2018-04-16T17:31:27.387Z,85.27
2018-04-16T17:32:27.315Z,84.31
2018-04-16T17:33:27.273Z,84.79
2018-04-16T17:34:27.184Z,85.36
2018-04-16T17:35:27.091Z,84.31
2018-04-16T17:36:27.018Z,85.08
2018-04-16T17:37:26.941Z,84.50
2018-04-16T17:38:26.923Z,85.17
2018-04-16T17:39:26.812Z,85.17
2018-04-16T17:40:26.761Z,85.08
2018-04-16T17:41:26.651Z,85.08
2018-04-16T17:42:26.577Z,85.27
2018-04-16T17:43:26.491Z,85.36
2018-04-16T17:46:09.028Z,86.66
2018-04-16T17:47:08.897Z,86.32
2018-04-16T17:48:08.824Z,86.90
2018-04-16T17:49:08.747Z,87.14
2018-04-16T17:50:08.672Z,88.00
2018-04-16T17:51:08.599Z,88.76
2018-04-16T17:52:08.521Z,88.48
2018-04-16T17:53:08.492Z,89.81
2018-04-16T17:54:08.371Z,88.76
2018-04-16T17:55:08.303Z,89.34
2018-04-16T17:56:08.227Z,89.15
2018-04-16T17:57:08.149Z,89.53
2018-04-16T17:58:08.139Z,89.24
2018-04-16T17:59:08.394Z,89.91
2018-04-16T18:00:07.928Z,89.34
2018-04-16T18:01:08.019Z,89.43
2018-04-16T18:02:07.770Z,90.10
2018-04-16T18:03:07.746Z,89.62
2018-04-16T18:04:07.629Z,89.24
2018-04-16T18:05:07.544Z,89.91
2018-04-16T18:06:07.471Z,90.30
2018-04-16T18:07:07.409Z,90.39
2018-04-16T18:08:07.319Z,90.30
2018-04-16T18:09:07.245Z,90.30
2018-04-16T18:10:07.170Z,90.30
2018-04-16T18:11:07.094Z,90.48
2018-04-16T18:12:07.408Z,90.30
2018-04-16T18:13:06.962Z,89.62
2018-04-16T18:14:06.869Z,90.20
2018-04-16T18:15:06.908Z,90.20
2018-04-16T18:16:06.718Z,89.91
2018-04-16T18:17:06.639Z,90.48
2018-04-16T18:18:06.567Z,90.67
2018-04-16T18:19:06.489Z,90.20
2018-04-16T18:20:06.419Z,90.20
2018-04-16T18:21:06.376Z,91.06
2018-04-16T18:22:06.264Z,90.87
2018-04-16T18:23:06.193Z,90.67
2018-04-16T18:24:06.113Z,91.25
2018-04-16T18:25:06.042Z,91.39
2018-04-16T18:26:05.965Z,91.53
2018-04-16T18:27:05.884Z,91.49
2018-04-16T18:28:05.822Z,91.68
2018-04-16T18:29:05.736Z,92.16
2018-04-16T18:30:05.664Z,91.88
2018-04-16T18:31:05.581Z,92.25
2018-04-16T18:32:05.509Z,92.93
2018-04-16T18:33:05.445Z,92.16
2018-04-16T18:34:05.357Z,92.16
2018-04-16T18:35:05.288Z,92.25
2018-04-16T18:36:05.206Z,92.35
2018-04-16T18:37:05.128Z,92.64
2018-04-16T18:38:05.053Z,92.54
2018-04-16T18:39:05.004Z,92.35
2018-04-16T18:40:04.902Z,92.16
2018-04-16T18:41:04.825Z,93.31
2018-04-16T18:42:04.751Z,93.79
2018-04-16T18:43:04.672Z,93.79
2018-04-16T18:44:04.601Z,93.69
2018-04-16T18:45:04.532Z,93.60
2018-04-16T18:46:06.195Z,93.69
2018-04-16T18:47:04.371Z,93.21
2018-04-16T18:48:04.318Z,93.12
2018-04-16T18:49:04.217Z,93.02
2018-04-16T18:50:04.141Z,93.60
2018-04-16T18:51:04.066Z,93.50
2018-04-16T18:52:03.989Z,93.69
2018-04-16T18:53:03.915Z,93.40
2018-04-16T18:54:03.837Z,93.98
2018-04-16T18:55:03.763Z,93.69
2018-04-16T18:56:03.686Z,93.69
2018-04-16T18:57:03.607Z,93.02
2018-04-16T18:58:03.545Z,92.93
2018-04-16T18:59:03.458Z,93.31
2018-04-16T19:00:03.381Z,92.83
2018-04-16T19:01:03.303Z,92.93
2018-04-16T19:02:03.228Z,92.93
2018-04-16T19:03:03.153Z,93.12
2018-04-16T19:04:03.100Z,94.26
2018-04-16T19:05:03.001Z,94.22
2018-04-16T19:06:02.924Z,94.02
2018-04-16T19:07:02.848Z,95.27
2018-04-16T19:08:02.773Z,95.46
2018-04-16T19:09:02.696Z,95.07
2018-04-16T19:10:02.622Z,96.42
2018-04-16T19:11:02.552Z,96.03
2018-04-16T19:12:02.471Z,95.94
2018-04-16T19:13:02.390Z,95.94
2018-04-16T19:14:02.323Z,96.03
2018-04-16T19:15:02.245Z,95.36
2018-04-16T19:16:02.203Z,95.56
2018-04-16T19:17:02.086Z,95.36
2018-04-16T19:18:02.009Z,94.98
2018-04-16T19:19:01.935Z,95.65
2018-04-16T19:20:01.860Z,96.22
2018-04-16T19:21:01.780Z,95.75
2018-04-16T19:22:01.704Z,95.84
2018-04-16T19:23:01.632Z,95.94
2018-04-16T19:24:01.555Z,95.65
2018-04-16T19:25:01.491Z,95.65
2018-04-16T19:26:01.413Z,95.84
2018-04-16T19:27:01.321Z,95.94
2018-04-16T19:28:01.259Z,95.56
2018-04-16T19:29:01.182Z,95.07
2018-04-16T19:30:01.099Z,95.17
2018-04-16T19:31:01.041Z,94.70
2018-04-16T19:32:00.941Z,95.36
2018-04-16T19:33:00.866Z,95.65
2018-04-16T19:34:00.787Z,95.36
2018-04-16T19:35:00.715Z,94.84
2018-04-16T19:36:00.656Z,94.98
2018-04-16T19:37:00.567Z,94.79
2018-04-16T19:38:00.484Z,94.93
2018-04-16T19:39:00.408Z,94.74
2018-04-16T19:40:00.331Z,95.22
2018-04-16T19:41:00.255Z,95.22
2018-04-16T19:42:00.185Z,96.08
2018-04-16T19:43:00.110Z,96.08
2018-04-16T19:44:00.023Z,96.03
2018-04-16T19:44:59.956Z,96.46
2018-04-16T19:45:59.874Z,96.08
2018-04-16T19:46:59.795Z,96.17
2018-04-16T19:47:59.718Z,96.22
2018-04-16T19:48:59.695Z,96.42
2018-04-16T19:49:59.570Z,96.80
2018-04-16T19:50:59.489Z,96.98
2018-04-16T19:51:59.413Z,96.61
2018-04-16T19:52:59.379Z,96.13
2018-04-16T19:53:59.283Z,96.80
2018-04-16T19:54:59.197Z,97.37
2018-04-16T19:55:59.105Z,97.94
2018-04-16T19:56:59.031Z,97.56
2018-04-16T19:57:58.954Z,97.75
2018-04-16T19:58:58.875Z,97.66
2018-04-16T19:59:58.800Z,97.27
2018-04-16T20:00:58.720Z,96.80
2018-04-16T20:01:58.645Z,97.56
2018-04-16T20:02:58.589Z,97.37
2018-04-16T20:03:58.488Z,97.18
2018-04-16T20:04:58.412Z,97.66
2018-04-16T20:05:58.343Z,97.37
2018-04-16T20:06:58.269Z,96.80
2018-04-16T20:07:58.200Z,96.89
2018-04-16T20:08:58.111Z,97.37
2018-04-16T20:09:58.028Z,97.18
2018-04-16T20:10:57.969Z,96.89
2018-04-16T20:11:57.871Z,97.75
2018-04-16T20:12:57.793Z,98.13
2018-04-16T20:13:57.717Z,98.32
2018-04-16T20:14:57.681Z,98.47
2018-04-16T20:15:57.569Z,98.18
2018-04-16T20:16:57.485Z,98.18
2018-04-16T20:17:57.411Z,98.47
2018-04-16T20:18:57.342Z,98.13
2018-04-16T20:19:57.258Z,98.18
2018-04-16T20:20:57.188Z,98.52
2018-04-16T20:21:57.100Z,98.18
2018-04-16T20:22:57.025Z,97.85
2018-04-16T20:23:56.948Z,98.52
2018-04-16T20:24:56.871Z,98.23
2018-04-16T20:25:56.797Z,97.89
2018-04-16T20:26:56.716Z,98.47
2018-04-16T20:27:56.638Z,98.18
2018-04-16T20:28:56.563Z,98.37
2018-04-16T20:29:56.495Z,98.08
2018-04-16T20:30:56.405Z,97.99
2018-04-16T20:31:56.334Z,98.94
2018-04-16T20:32:56.249Z,98.85
2018-04-16T20:33:56.175Z,99.23
2018-04-16T20:34:56.132Z,99.52
2018-04-16T20:35:56.018Z,99.80
2018-04-16T20:36:55.982Z,99.71
2018-04-16T20:37:55.869Z,99.04
2018-04-16T20:38:55.807Z,99.61
2018-04-16T20:39:55.717Z,99.80
2018-04-16T20:40:55.636Z,99.61
2018-04-16T20:41:55.555Z,99.71
2018-04-16T20:42:55.487Z,99.71
2018-04-16T20:43:55.402Z,99.04
2018-04-16T20:44:56.008Z,99.13
2018-04-16T20:45:55.247Z,99.13
2018-04-16T20:46:55.170Z,99.61
2018-04-16T20:47:55.096Z,99.42
2018-04-16T20:48:55.014Z,99.71
2018-04-16T20:49:54.937Z,99.80
2018-04-16T20:50:54.859Z,99.71
2018-04-16T20:51:54.783Z,99.23
2018-04-16T20:52:54.706Z,99.13
2018-04-16T20:53:54.647Z,99.13
2018-04-16T20:54:54.554Z,99.52
2018-04-16T20:55:54.472Z,99.71
2018-04-16T20:56:54.400Z,99.42
2018-04-16T20:57:54.323Z,99.99
2018-04-16T20:58:54.240Z,99.90
2018-04-16T20:59:54.162Z,99.52
2018-04-16T21:00:54.085Z,98.56
2018-04-16T21:01:54.009Z,99.80
2018-04-16T21:02:53.933Z,99.80
2018-04-16T21:03:53.853Z,99.23
2018-04-16T21:04:53.776Z,99.80
2018-04-16T21:05:53.713Z,99.80
2018-04-16T21:06:53.643Z,99.61
2018-04-16T21:07:53.559Z,99.61
2018-04-16T21:08:53.481Z,99.52
2018-04-16T21:09:53.403Z,99.52
2018-04-16T21:10:53.324Z,99.80
2018-04-16T21:11:53.268Z,99.80
2018-04-16T21:12:53.173Z,99.71
2018-04-16T21:13:53.098Z,99.61
2018-04-16T21:14:53.016Z,99.99
2018-04-16T21:15:52.943Z,99.99
2018-04-16T21:16:52.861Z,99.99
2018-04-16T21:17:52.785Z,99.99
2018-04-16T21:18:52.725Z,99.99
2018-04-16T21:19:52.628Z,99.99
2018-04-16T21:20:52.547Z,99.99
2018-04-16T21:21:52.474Z,99.99
2018-04-16T21:22:52.395Z,99.99
2018-04-16T21:23:52.320Z,99.75
2018-04-16T21:24:52.257Z,99.27
2018-04-16T21:25:52.161Z,99.71
2018-04-16T21:26:52.086Z,99.18
2018-04-16T21:27:52.021Z,99.37
2018-04-16T21:28:51.926Z,99.18
2018-04-16T21:29:51.855Z,99.18
2018-04-16T21:30:51.774Z,99.66
2018-04-16T21:31:51.696Z,99.75
2018-04-16T21:32:51.622Z,99.85
2018-04-16T21:33:51.559Z,99.56
2018-04-16T21:34:51.464Z,99.66
2018-04-16T21:35:51.386Z,99.75
2018-04-16T21:36:51.317Z,99.66
2018-04-16T21:37:51.232Z,99.08
2018-04-16T21:38:51.158Z,99.37
2018-04-16T21:39:51.074Z,99.75
2018-04-16T21:40:50.999Z,99.56
2018-04-16T21:41:50.921Z,98.99
2018-04-16T21:42:50.843Z,99.04
2018-04-16T21:43:50.775Z,99.27
2018-04-16T21:44:50.700Z,99.18
2018-04-16T21:45:50.609Z,99.23
2018-04-16T21:46:50.531Z,98.80
2018-04-16T21:47:50.461Z,98.94
2018-04-16T21:48:50.377Z,98.75
2018-04-16T21:49:50.298Z,99.13
2018-04-16T21:50:50.219Z,98.85
2018-04-16T21:51:50.144Z,99.23
2018-04-16T21:52:50.064Z,98.47
2018-04-16T21:53:49.989Z,98.56
2018-04-16T21:54:49.911Z,98.18
2018-04-16T21:55:49.853Z,97.99
2018-04-16T21:56:49.796Z,98.18
2018-04-16T21:57:49.687Z,98.85
2018-04-16T21:58:49.602Z,98.37
2018-04-16T21:59:49.525Z,98.18
2018-04-16T22:00:49.444Z,98.27
2018-04-16T22:01:49.368Z,97.99
2018-04-16T22:02:49.289Z,98.18
2018-04-16T22:03:49.218Z,97.99
2018-04-16T22:04:49.135Z,98.08
2018-04-16T22:05:49.071Z,97.99
2018-04-16T22:06:48.978Z,98.18
2018-04-16T22:07:48.901Z,98.08
2018-04-16T22:08:48.824Z,97.99
2018-04-16T22:09:48.748Z,97.61
2018-04-16T22:10:48.667Z,97.51
2018-04-16T22:11:48.592Z,97.61
2018-04-16T22:12:48.515Z,97.89
2018-04-16T22:13:48.436Z,98.08
2018-04-16T22:14:48.376Z,98.56
2018-04-16T22:15:48.290Z,97.99
2018-04-16T22:16:48.206Z,97.51
2018-04-16T22:17:48.141Z,97.51
2018-04-16T22:18:48.051Z,97.80
2018-04-16T22:19:47.973Z,97.32
2018-04-16T22:20:47.897Z,97.89
2018-04-16T22:21:47.817Z,97.03
2018-04-16T22:22:47.739Z,97.89
2018-04-16T22:23:47.664Z,97.22
2018-04-16T22:24:47.586Z,97.99
2018-04-16T22:25:47.519Z,97.75
2018-04-16T22:26:47.432Z,97.89
2018-04-16T22:27:47.352Z,98.18
2018-04-16T22:28:47.272Z,98.03
2018-04-16T22:29:47.200Z,98.22
2018-04-16T22:30:47.120Z,98.47
2018-04-16T22:31:47.048Z,98.22
2018-04-16T22:32:46.964Z,97.94
2018-04-16T22:33:46.887Z,97.75
2018-04-16T22:34:46.818Z,97.94
2018-04-16T22:35:46.733Z,97.66
2018-04-16T22:36:46.658Z,97.85
2018-04-16T22:37:46.579Z,97.85
2018-04-16T22:38:46.501Z,98.22
2018-04-16T22:39:46.422Z,98.42
2018-04-16T22:40:46.343Z,98.61
2018-04-16T22:41:46.267Z,99.37
2018-04-16T22:42:46.190Z,99.85
2018-04-16T22:43:46.112Z,99.75
2018-04-16T22:44:46.032Z,99.99
2018-04-16T22:45:45.955Z,99.99
2018-04-16T22:46:45.877Z,99.85
2018-04-16T22:47:45.802Z,99.66
2018-04-16T22:48:45.722Z,99.56
2018-04-16T22:49:45.648Z,99.75
2018-04-16T22:50:45.566Z,99.46
2018-04-16T22:51:45.488Z,99.56
2018-04-16T22:52:45.412Z,99.56
2018-04-16T22:53:45.336Z,99.75
2018-04-16T22:54:45.255Z,99.66
2018-04-16T22:55:45.178Z,99.99
2018-04-16T22:56:45.100Z,99.99
2018-04-16T22:57:45.031Z,99.99
2018-04-16T22:58:44.947Z,99.99
2018-04-16T22:59:44.893Z,99.99
2018-04-16T23:00:44.789Z,99.99
2018-04-16T23:01:44.714Z,99.99
2018-04-16T23:02:44.657Z,99.99
2018-04-16T23:03:44.555Z,99.99
2018-04-16T23:04:44.496Z,99.99
2018-04-16T23:05:44.402Z,99.99
2018-04-16T23:06:44.322Z,99.99
2018-04-16T23:07:44.250Z,99.99
2018-04-16T23:08:44.165Z,99.99
2018-04-16T23:09:44.089Z,99.99
2018-04-16T23:10:44.011Z,99.99
2018-04-16T23:11:43.933Z,99.99
2018-04-16T23:12:43.855Z,99.99
2018-04-16T23:13:43.779Z,99.99
2018-04-16T23:14:43.699Z,99.99
2018-04-16T23:15:43.640Z,99.99
2018-04-16T23:16:43.547Z,99.41
2018-04-16T23:17:43.464Z,99.70
2018-04-16T23:18:43.388Z,99.89
2018-04-16T23:19:43.320Z,99.99
2018-04-16T23:20:43.233Z,99.99
2018-04-16T23:21:43.157Z,99.80
2018-04-16T23:22:43.075Z,99.99
2018-04-16T23:23:42.998Z,99.99
2018-04-16T23:24:42.926Z,99.70
2018-04-16T23:25:42.844Z,99.99
2018-04-16T23:26:42.778Z,99.99
2018-04-16T23:27:42.686Z,99.89
2018-04-16T23:28:42.607Z,99.99
2018-04-16T23:29:42.531Z,99.99
2018-04-16T23:30:42.454Z,99.70
2018-04-16T23:31:42.395Z,99.89
2018-04-16T23:32:42.295Z,99.89
2018-04-16T23:33:42.219Z,99.99
2018-04-16T23:34:42.141Z,99.99
2018-04-16T23:35:42.062Z,99.99
2018-04-16T23:36:41.984Z,99.99
2018-04-16T23:37:41.911Z,99.99
2018-04-16T23:38:41.836Z,99.99
2018-04-16T23:39:41.752Z,99.99
2018-04-16T23:40:41.672Z,99.99
2018-04-16T23:41:41.596Z,99.99
2018-04-16T23:42:41.519Z,99.99
2018-04-16T23:43:41.440Z,99.99
2018-04-16T23:44:41.364Z,99.99
2018-04-16T23:45:41.285Z,99.99
2018-04-16T23:46:41.213Z,99.99
2018-04-16T23:47:41.129Z,99.99
2018-04-16T23:48:41.051Z,99.99
2018-04-16T23:49:40.975Z,99.99
2018-04-16T23:50:40.914Z,99.99
2018-04-16T23:51:40.819Z,99.99
2018-04-16T23:52:40.740Z,99.99
2018-04-16T23:53:40.661Z,99.99
2018-04-16T23:54:40.583Z,99.99
2018-04-16T23:55:40.512Z,99.99
2018-04-16T23:56:40.427Z,99.99
2018-04-16T23:57:40.364Z,99.99
2018-04-16T23:58:40.273Z,99.99
2018-04-16T23:59:40.197Z,99.99
